Time;durP1;ratioP1;P1;durP2;ratioP2;P2;SDS_P1;SDS_P2;PMS_P1;PMS_P2;Temp;Humidity;BMP_temperature;BMP_pressure;BME280_temperature;BME280_humidity;BME280_pressure;Samples;Min_cycle;Max_cycle;Signal;HPM_P1;HPM_P2
2023/02/03 00:00:35;;;;;;;32.53;13.80;;;;;;;1.33;75.39;98746.63;5070367;28;20085;-50
2023/02/03 00:03:01;;;;;;;37.97;14.48;;;;;;;1.34;75.48;98745.78;5074310;28;20074;-52
2023/02/03 00:05:27;;;;;;;31.50;13.52;;;;;;;1.40;75.42;98738.03;5078182;28;20731;-47
2023/02/03 00:07:53;;;;;;;38.33;14.15;;;;;;;1.43;75.66;98737.97;5088399;28;20519;-51
2023/02/03 00:10:20;;;;;;;34.22;13.65;;;;;;;1.51;75.32;98743.84;5089741;28;20051;-48
2023/02/03 00:12:49;;;;;;;34.75;13.43;;;;;;;1.52;75.09;98739.56;5073520;28;20048;-51
2023/02/03 00:15:15;;;;;;;38.70;15.10;;;;;;;1.55;75.31;98739.53;5070140;28;20033;-49
2023/02/03 00:17:41;;;;;;;33.53;13.43;;;;;;;1.44;75.70;98744.78;5089654;28;20035;-51
2023/02/03 00:20:08;;;;;;;30.27;13.23;;;;;;;1.48;75.36;98738.75;5090662;28;20047;-49
2023/02/03 00:22:34;;;;;;;35.50;14.75;;;;;;;1.44;75.10;98746.50;5084772;28;20072;-49
2023/02/03 00:24:59;;;;;;;37.10;14.85;;;;;;;1.44;75.66;98746.50;5087341;28;20081;-46
2023/02/03 00:27:25;;;;;;;33.70;13.57;;;;;;;1.30;75.59;98715.13;5072840;28;20036;-48
2023/02/03 00:29:51;;;;;;;35.40;14.70;;;;;;;1.46;75.52;98737.94;5067642;28;20060;-48
2023/02/03 00:32:17;;;;;;;37.88;14.65;;;;;;;1.42;75.38;98751.63;5073445;28;20547;-52
2023/02/03 00:34:43;;;;;;;36.30;14.43;;;;;;;1.33;75.85;98745.78;5071569;28;20123;-54
2023/02/03 00:37:11;;;;;;;26.23;10.57;;;;;;;1.16;76.14;98725.50;5089660;28;20450;-48
2023/02/03 00:39:37;;;;;;;34.45;14.60;;;;;;;1.27;76.32;98754.38;5088382;28;20036;-47
2023/02/03 00:42:04;;;;;;;35.20;14.25;;;;;;;1.27;76.39;98751.81;5080657;28;20108;-46
2023/02/03 00:44:30;;;;;;;37.05;13.90;;;;;;;1.30;76.14;98746.69;5083389;28;20066;-48
2023/02/03 00:46:56;;;;;;;34.67;14.13;;;;;;;1.19;75.87;98721.22;5068852;28;20040;-46
2023/02/03 00:49:22;;;;;;;33.20;14.00;;;;;;;1.15;76.47;98723.84;5070130;28;20063;-47
2023/02/03 00:51:49;;;;;;;35.15;13.40;;;;;;;1.36;75.96;98745.78;5071136;28;20040;-48
2023/02/03 00:54:15;;;;;;;31.77;12.77;;;;;;;1.33;76.36;98741.53;5071080;28;20036;-47
2023/02/03 00:56:41;;;;;;;29.90;12.85;;;;;;;1.25;76.32;98746.75;5071436;28;20051;-45
2023/02/03 00:59:07;;;;;;;35.72;14.35;;;;;;;1.26;76.26;98740.75;5076217;28;20037;-50
2023/02/03 01:01:34;;;;;;;31.45;12.65;;;;;;;1.30;76.74;98749.25;5089251;28;20063;-49
2023/02/03 01:04:00;;;;;;;35.67;13.65;;;;;;;1.15;76.74;98737.47;5089622;28;20040;-47
2023/02/03 01:06:26;;;;;;;29.48;12.93;;;;;;;1.16;77.09;98738.31;5091188;28;20063;-46
2023/02/03 01:08:53;;;;;;;36.10;13.32;;;;;;;1.16;77.37;98739.16;5090340;28;20048;-55
2023/02/03 01:11:22;;;;;;;37.33;13.50;;;;;;;1.10;77.56;98738.41;5098932;28;20531;-48
2023/02/03 01:13:49;;;;;;;32.08;12.63;;;;;;;1.05;78.05;98732.47;5072052;28;20058;-47
2023/02/03 01:16:17;;;;;;;32.15;14.00;;;;;;;0.99;78.07;98732.56;5087250;28;20040;-48
2023/02/03 01:18:43;;;;;;;33.13;12.85;;;;;;;0.98;78.53;98738.53;5089947;28;20426;-46
2023/02/03 01:21:24;;;;;;;36.40;14.27;;;;;;;0.96;78.95;98724.91;5090416;28;20043;-44
2023/02/03 01:23:50;;;;;;;33.45;13.43;;;;;;;0.97;78.93;98732.56;5089182;28;20044;-51
2023/02/03 01:26:18;;;;;;;37.28;14.55;;;;;;;0.78;79.22;98702.94;5080484;28;20056;-52
2023/02/03 01:28:57;;;;;;;38.15;14.25;;;;;;;1.01;79.27;98725.69;5076955;28;20130;-49
2023/02/03 01:31:28;;;;;;;40.75;14.40;;;;;;;0.98;79.74;98726.59;5089825;28;20040;-51
2023/02/03 01:33:55;;;;;;;37.88;12.68;;;;;;;0.96;79.72;98722.34;5090930;28;20066;-46
2023/02/03 01:36:23;;;;;;;42.67;14.98;;;;;;;0.93;80.20;98728.34;5087971;28;20071;-50
2023/02/03 01:38:48;;;;;;;39.60;14.13;;;;;;;0.95;80.05;98725.75;5070337;28;20037;-46
2023/02/03 01:41:20;;;;;;;41.60;15.63;;;;;;;0.94;80.44;98731.78;5072779;28;20490;-48
2023/02/03 01:43:52;;;;;;;38.03;14.77;;;;;;;0.94;80.39;98729.22;5090617;28;20070;-49
2023/02/03 01:46:40;;;;;;;32.50;13.40;;;;;;;0.96;80.57;98732.56;5088692;28;20214;-48
2023/02/03 01:49:18;;;;;;;37.42;14.75;;;;;;;0.98;80.29;98731.72;5054106;28;20089;-47
2023/02/03 01:51:44;;;;;;;33.45;14.65;;;;;;;1.03;80.45;98731.66;5071814;28;20048;-49
2023/02/03 01:54:18;;;;;;;38.85;13.98;;;;;;;1.06;80.73;98719.66;5087293;28;20048;-47
2023/02/03 01:56:52;;;;;;;38.47;14.73;;;;;;;1.01;80.73;98724.00;5072662;28;20101;-50
2023/02/03 01:59:19;;;;;;;42.30;14.18;;;;;;;0.99;80.81;98715.50;5051526;28;20037;-45
2023/02/03 02:01:45;;;;;;;38.92;14.77;;;;;;;1.04;81.06;98720.56;5085566;28;20189;-49
2023/02/03 02:04:11;;;;;;;39.35;15.25;;;;;;;1.04;80.60;98715.44;5073658;28;20047;-47
2023/02/03 02:06:37;;;;;;;39.03;14.13;;;;;;;1.01;81.04;98716.31;5070471;28;20063;-52
2023/02/03 02:09:03;;;;;;;38.40;13.68;;;;;;;0.96;81.28;98707.84;5068598;28;20071;-46
2023/02/03 02:11:29;;;;;;;37.13;14.57;;;;;;;0.97;81.32;98716.38;5071068;28;20068;-51
2023/02/03 02:13:58;;;;;;;38.40;13.15;;;;;;;1.01;81.51;98721.44;5073490;28;20040;-50
2023/02/03 02:17:09;;;;;;;34.30;13.57;;;;;;;1.03;81.32;98714.59;5054863;28;20095;-48
2023/02/03 02:19:52;;;;;;;38.33;15.20;;;;;;;0.97;81.38;98714.66;5046455;28;20500;-51
2023/02/03 02:22:26;;;;;;;42.10;14.57;;;;;;;0.95;81.72;98718.09;5069383;28;20032;-45
2023/02/03 02:25:32;;;;;;;43.13;14.65;;;;;;;0.98;82.09;98715.50;5087667;28;20108;-50
2023/02/03 02:28:52;;;;;;;34.03;13.43;;;;;;;0.99;81.81;98714.66;5071507;28;20102;-47
2023/02/03 02:31:59;;;;;;;34.03;13.13;;;;;;;0.98;82.29;98713.81;5009119;28;20041;-47
2023/02/03 02:34:48;;;;;;;37.95;14.25;;;;;;;0.98;82.51;98707.84;5049002;28;20048;-51
2023/02/03 02:37:23;;;;;;;35.08;14.18;;;;;;;1.04;82.40;98716.28;5059670;28;20170;-48
2023/02/03 02:39:56;;;;;;;39.50;14.05;;;;;;;1.00;82.41;98711.19;5087813;28;20055;-48
2023/02/03 02:42:38;;;;;;;37.25;14.43;;;;;;;1.03;82.69;98708.63;5088126;28;20085;-49
2023/02/03 02:45:09;;;;;;;38.45;14.00;;;;;;;0.83;82.59;98675.59;5069497;28;20063;-47
2023/02/03 02:47:35;;;;;;;39.08;14.15;;;;;;;1.05;82.46;98717.09;5066900;28;20059;-49
2023/02/03 02:50:07;;;;;;;38.97;14.07;;;;;;;0.68;82.49;98655.31;5060605;28;20044;-47
2023/02/03 02:52:36;;;;;;;40.75;15.10;;;;;;;1.03;82.56;98700.94;5076345;28;20051;-46
2023/02/03 02:55:10;;;;;;;32.70;12.38;;;;;;;1.02;82.60;98701.81;5068452;28;20522;-47
2023/02/03 02:57:38;;;;;;;42.13;14.77;;;;;;;1.06;83.05;98706.88;5071315;28;20036;-48
2023/02/03 03:00:05;;;;;;;40.75;12.80;;;;;;;1.09;82.99;98706.84;5082120;28;20044;-47
2023/02/03 03:02:33;;;;;;;40.22;14.63;;;;;;;1.09;83.27;98709.41;5067586;28;20054;-47
2023/02/03 03:05:05;;;;;;;33.55;13.35;;;;;;;1.13;83.31;98717.88;5067587;28;20037;-46
2023/02/03 03:07:40;;;;;;;35.05;13.88;;;;;;;1.14;83.28;98720.44;5051129;28;20045;-48
2023/02/03 03:10:10;;;;;;;37.45;15.27;;;;;;;1.12;83.13;98713.63;5050522;28;20040;-49
2023/02/03 03:12:39;;;;;;;39.30;14.18;;;;;;;1.17;82.89;98711.84;5068928;28;20420;-47
2023/02/03 03:15:11;;;;;;;37.00;14.05;;;;;;;1.15;83.11;98711.88;5064290;28;20069;-50
2023/02/03 03:17:41;;;;;;;41.33;15.20;;;;;;;1.13;83.14;98712.75;5076417;28;20059;-48
2023/02/03 03:20:11;;;;;;;38.30;13.70;;;;;;;0.99;83.07;98682.25;5067508;28;20048;-48
2023/02/03 03:22:45;;;;;;;44.05;14.07;;;;;;;1.31;83.02;98714.25;5082646;28;20051;-49
2023/02/03 03:25:17;;;;;;;41.22;14.90;;;;;;;1.27;82.59;98710.88;5052625;28;20076;-50
2023/02/03 03:27:49;;;;;;;39.78;14.50;;;;;;;1.31;82.61;98714.25;5085003;28;20043;-48
2023/02/03 03:30:36;;;;;;;39.28;14.57;;;;;;;1.32;82.52;98715.94;5060881;28;20044;-47
2023/02/03 03:33:04;;;;;;;40.72;14.35;;;;;;;1.11;82.72;98666.69;5070644;28;20052;-52
2023/02/03 03:35:52;;;;;;;35.80;13.65;;;;;;;1.45;82.17;98704.66;5086550;28;20036;-51
2023/02/03 03:38:22;;;;;;;39.13;15.43;;;;;;;1.40;82.12;98702.19;5057366;28;20067;-47
2023/02/03 03:40:54;;;;;;;38.00;13.43;;;;;;;1.50;81.84;98718.25;5087349;28;20036;-48
2023/02/03 03:43:24;;;;;;;39.45;14.18;;;;;;;1.51;81.71;98717.41;5088876;28;20444;-48
2023/02/03 03:46:12;;;;;;;34.35;14.07;;;;;;;1.53;81.85;98711.38;5083445;28;20420;-46
2023/02/03 03:48:52;;;;;;;32.58;12.85;;;;;;;1.53;81.74;98710.53;5091428;28;20044;-48
2023/02/03 03:51:29;;;;;;;42.85;14.90;;;;;;;1.52;81.79;98706.25;5091436;28;20032;-47
2023/02/03 03:53:57;;;;;;;34.45;12.98;;;;;;;1.58;81.63;98711.31;5091226;28;20134;-47
2023/02/03 03:56:30;;;;;;;38.80;14.02;;;;;;;1.63;81.78;98712.09;5090280;28;20036;-46
2023/02/03 03:58:58;;;;;;;39.05;14.27;;;;;;;1.64;81.60;98711.22;5070945;28;20039;-48
2023/02/03 04:01:25;;;;;;;38.78;14.25;;;;;;;1.47;81.46;98682.44;5081778;28;20039;-51
2023/02/03 04:03:57;;;;;;;37.00;13.25;;;;;;;1.71;81.53;98712.84;5073433;28;20044;-49
2023/02/03 04:06:22;;;;;;;31.85;12.10;;;;;;;1.76;81.49;98710.19;5082784;28;20032;-47
2023/02/03 04:08:48;;;;;;;36.58;13.25;;;;;;;1.74;81.45;98710.22;5070722;28;20052;-49
2023/02/03 04:11:59;;;;;;;34.88;13.13;;;;;;;1.77;81.45;98710.19;5074603;28;20531;-48
2023/02/03 04:14:00;;;;;;;32.92;12.05;;;;;;;1.89;80.91;98719.38;5070884;28;20037;-52
2023/02/03 04:16:26;;;;;;;32.60;12.70;;;;;;;1.97;81.17;98712.44;5078371;28;20081;-49
2023/02/03 04:18:52;;;;;;;31.63;13.23;;;;;;;2.07;80.93;98707.16;5071127;28;20047;-49
2023/02/03 04:21:18;;;;;;;30.58;11.60;;;;;;;2.07;80.54;98711.44;5090596;28;20032;-50
2023/02/03 04:23:44;;;;;;;32.03;12.52;;;;;;;2.03;80.51;98709.78;5086199;28;20071;-47
2023/02/03 04:26:10;;;;;;;34.13;13.10;;;;;;;2.01;80.62;98706.41;5074506;28;20093;-49
2023/02/03 04:28:36;;;;;;;27.48;11.43;;;;;;;2.05;80.49;98714.00;5071879;28;20052;-47
2023/02/03 04:31:01;;;;;;;32.33;12.80;;;;;;;2.10;80.52;98708.81;5073825;28;20428;-46
2023/02/03 04:33:27;;;;;;;28.90;12.52;;;;;;;2.23;80.29;98718.00;5089068;28;20503;-50
2023/02/03 04:35:53;;;;;;;31.98;12.85;;;;;;;2.24;80.23;98711.16;5090105;28;20101;-48
2023/02/03 04:38:19;;;;;;;33.85;12.65;;;;;;;2.24;80.08;98717.13;5088503;28;20036;-49
2023/02/03 04:40:45;;;;;;;31.90;11.15;;;;;;;2.22;80.13;98724.00;5086156;28;20032;-49
2023/02/03 04:43:13;;;;;;;30.25;12.32;;;;;;;1.96;79.63;98685.13;5090394;28;20514;-49
2023/02/03 04:45:38;;;;;;;32.63;13.15;;;;;;;1.91;79.69;98685.19;5036788;28;20047;-47
2023/02/03 04:48:04;;;;;;;29.20;12.82;;;;;;;1.88;80.01;98686.97;5085186;28;20482;-47
2023/02/03 04:50:31;;;;;;;31.77;12.65;;;;;;;2.19;80.35;98715.50;5088357;28;20507;-48
2023/02/03 04:53:00;;;;;;;30.13;12.23;;;;;;;2.30;79.98;98717.03;5090076;28;20041;-51
2023/02/03 04:55:27;;;;;;;33.60;12.88;;;;;;;2.29;79.73;98710.22;5088440;28;20063;-51
2023/02/03 04:57:57;;;;;;;30.42;12.57;;;;;;;2.30;79.38;98708.50;5088912;28;20040;-49
2023/02/03 05:00:23;;;;;;;28.85;11.48;;;;;;;2.30;79.49;98709.34;5090194;28;20035;-52
2023/02/03 05:02:49;;;;;;;33.20;12.38;;;;;;;2.06;79.38;98667.00;5080122;28;20051;-47
2023/02/03 05:05:16;;;;;;;31.77;13.35;;;;;;;2.29;78.97;98715.34;5089200;28;20040;-47
2023/02/03 05:07:42;;;;;;;29.63;12.50;;;;;;;2.33;79.53;98716.97;5088827;28;20039;-51
2023/02/03 05:10:08;;;;;;;25.55;11.50;;;;;;;2.41;79.08;98725.38;5087989;28;20052;-48
2023/02/03 05:12:34;;;;;;;31.63;11.55;;;;;;;2.36;79.28;98716.91;5088742;28;20028;-53
2023/02/03 05:15:00;;;;;;;22.38;10.82;;;;;;;2.33;79.28;98718.69;5074105;28;20033;-53
2023/02/03 05:17:26;;;;;;;33.28;12.30;;;;;;;2.32;79.53;98725.53;5057908;28;20063;-49
2023/02/03 05:19:52;;;;;;;31.75;12.05;;;;;;;2.06;79.34;98682.38;5068985;28;20063;-51
2023/02/03 05:22:17;;;;;;;29.10;10.95;;;;;;;2.44;79.23;98722.78;5070097;28;20043;-49
2023/02/03 05:24:43;;;;;;;29.98;12.27;;;;;;;2.28;79.00;98711.06;5070162;28;20044;-51
2023/02/03 05:27:09;;;;;;;31.08;12.23;;;;;;;2.23;79.65;98717.16;5085098;28;20162;-54
2023/02/03 05:29:35;;;;;;;30.65;11.52;;;;;;;2.02;79.64;98678.19;5080418;28;20032;-47
2023/02/03 05:32:01;;;;;;;30.20;12.45;;;;;;;2.28;79.65;98721.34;5073472;28;20055;-47
2023/02/03 05:34:27;;;;;;;27.63;11.57;;;;;;;2.29;79.61;98724.75;5090111;28;20035;-46
2023/02/03 05:36:52;;;;;;;30.45;11.82;;;;;;;2.32;79.53;98717.00;5088700;28;20036;-47
2023/02/03 05:39:18;;;;;;;26.88;11.98;;;;;;;2.32;79.38;98692.19;5069189;28;20523;-49
2023/02/03 05:41:53;;;;;;;27.73;11.48;;;;;;;2.54;78.95;98720.88;5086788;28;20576;-49
2023/02/03 05:44:24;;;;;;;25.45;10.65;;;;;;;2.49;78.74;98731.22;5052931;28;20415;-49
2023/02/03 05:46:52;;;;;;;20.85;9.02;;;;;;;2.40;78.85;98728.84;5068868;28;20048;-46
2023/02/03 05:49:22;;;;;;;25.92;10.57;;;;;;;2.24;78.68;98706.88;5075906;28;20039;-49
2023/02/03 05:51:49;;;;;;;29.70;11.63;;;;;;;2.32;78.65;98709.28;5087714;28;20047;-48
2023/02/03 05:54:15;;;;;;;27.08;10.95;;;;;;;2.41;78.49;98725.38;5089030;28;20043;-47
2023/02/03 05:56:41;;;;;;;24.25;9.90;;;;;;;2.49;78.17;98728.66;5093842;28;20048;-49
2023/02/03 05:59:07;;;;;;;23.83;9.20;;;;;;;2.45;77.48;98727.03;5085124;28;20121;-48
2023/02/03 06:01:34;;;;;;;19.15;7.90;;;;;;;2.36;77.41;98721.19;5085849;28;20431;-50
2023/02/03 06:04:00;;;;;;;23.33;9.18;;;;;;;2.33;77.83;98731.50;5070350;28;20479;-49
2023/02/03 06:06:32;;;;;;;19.92;7.90;;;;;;;2.31;77.45;98725.53;5051040;28;20047;-46
2023/02/03 06:09:03;;;;;;;23.73;8.95;;;;;;;2.25;77.43;98730.81;5081629;28;20040;-47
2023/02/03 06:11:30;;;;;;;21.55;9.32;;;;;;;2.01;77.15;98694.44;5079270;28;20040;-48
2023/02/03 06:13:57;;;;;;;21.25;8.90;;;;;;;2.35;77.33;98734.91;5088235;28;20094;-50
2023/02/03 06:16:24;;;;;;;22.48;8.23;;;;;;;2.37;76.81;98723.75;5083121;28;20743;-46
2023/02/03 06:18:51;;;;;;;13.73;6.07;;;;;;;2.33;76.20;98731.50;5091871;28;20032;-47
2023/02/03 06:21:17;;;;;;;20.65;8.57;;;;;;;2.21;76.47;98736.84;5089383;28;20040;-48
2023/02/03 06:23:43;;;;;;;11.02;5.50;;;;;;;2.20;76.23;98742.84;5089410;28;20555;-48
2023/02/03 06:26:09;;;;;;;24.92;8.80;;;;;;;2.13;76.23;98732.69;5076276;28;20055;-46
2023/02/03 06:28:37;;;;;;;17.73;8.13;;;;;;;2.11;76.02;98738.69;5094633;28;20143;-47
2023/02/03 06:31:04;;;;;;;19.52;7.53;;;;;;;1.98;75.87;98707.31;5088018;28;20086;-46
2023/02/03 06:33:30;;;;;;;19.27;8.52;;;;;;;2.14;76.01;98730.97;5086161;28;20049;-49
2023/02/03 06:35:56;;;;;;;24.70;9.68;;;;;;;2.14;76.63;98736.09;5088346;28;20044;-48
2023/02/03 06:38:22;;;;;;;24.40;9.52;;;;;;;2.22;76.78;98747.06;5073226;28;20404;-47
2023/02/03 06:40:49;;;;;;;20.67;8.95;;;;;;;2.09;76.61;98709.69;5084494;28;20074;-46
2023/02/03 06:43:15;;;;;;;19.27;8.95;;;;;;;2.36;76.87;98741.72;5079029;28;20101;-46
2023/02/03 06:45:41;;;;;;;24.60;10.30;;;;;;;2.40;76.52;98739.09;5083581;28;20112;-51
2023/02/03 06:48:07;;;;;;;19.48;8.75;;;;;;;2.40;76.13;98733.97;5078468;28;20470;-49
2023/02/03 06:50:33;;;;;;;23.27;8.95;;;;;;;2.48;76.23;98734.66;5077252;28;20116;-47
2023/02/03 06:52:59;;;;;;;20.40;9.13;;;;;;;2.46;76.05;98725.31;5077683;28;20067;-50
2023/02/03 06:55:25;;;;;;;21.75;8.98;;;;;;;2.51;76.20;98731.22;5068764;28;20055;-48
2023/02/03 06:57:51;;;;;;;24.27;9.82;;;;;;;2.69;75.86;98733.44;5068152;28;20044;-48
2023/02/03 07:00:17;;;;;;;22.70;9.98;;;;;;;2.70;75.90;98722.31;5068159;28;20124;-46
2023/02/03 07:02:43;;;;;;;26.10;10.40;;;;;;;2.80;75.33;98730.69;5055061;28;20048;-48
2023/02/03 07:05:10;;;;;;;28.77;11.75;;;;;;;2.78;75.42;98732.41;5085011;28;20115;-47
2023/02/03 07:07:38;;;;;;;29.00;10.88;;;;;;;2.82;75.53;98729.78;5078270;28;20044;-51
2023/02/03 07:10:05;;;;;;;27.65;10.88;;;;;;;2.89;75.31;98727.94;5071505;28;20056;-50
2023/02/03 07:12:31;;;;;;;23.67;9.85;;;;;;;2.97;74.85;98732.06;5083596;28;20405;-49
2023/02/03 07:14:57;;;;;;;23.90;9.77;;;;;;;3.13;75.03;98735.19;5086398;28;20040;-50
2023/02/03 07:17:22;;;;;;;23.63;9.93;;;;;;;3.08;74.33;98718.16;5079195;28;20392;-47
2023/02/03 07:19:48;;;;;;;20.58;9.25;;;;;;;3.12;74.30;98730.91;5058171;28;20037;-51
2023/02/03 07:22:14;;;;;;;23.27;10.02;;;;;;;3.28;73.99;98723.75;5077564;28;20044;-45
2023/02/03 07:24:40;;;;;;;19.48;9.13;;;;;;;3.59;73.22;98729.09;5086121;28;20096;-48
2023/02/03 07:27:06;;;;;;;19.30;7.43;;;;;;;4.05;71.93;98724.59;5081946;28;20048;-51
2023/02/03 07:29:32;;;;;;;22.27;8.68;;;;;;;4.31;70.63;98723.13;5080566;28;20443;-49
2023/02/03 07:31:58;;;;;;;18.40;8.43;;;;;;;4.44;69.33;98721.94;5090811;28;20135;-49
2023/02/03 07:34:24;;;;;;;20.05;8.65;;;;;;;4.27;69.36;98722.34;5085470;28;20058;-53
2023/02/03 07:36:50;;;;;;;24.92;9.32;;;;;;;4.13;69.61;98729.56;5063370;28;20140;-48
2023/02/03 07:39:16;;;;;;;23.77;9.18;;;;;;;3.91;69.42;98725.78;5086214;28;20062;-49
2023/02/03 07:41:42;;;;;;;20.30;8.52;;;;;;;3.80;69.37;98720.91;5079064;28;20132;-52
2023/02/03 07:44:08;;;;;;;22.88;9.98;;;;;;;3.86;69.54;98727.63;5069934;28;20131;-50
2023/02/03 07:46:35;;;;;;;22.55;8.90;;;;;;;3.77;69.59;98720.94;5054457;28;20507;-51
2023/02/03 07:49:04;;;;;;;22.38;9.65;;;;;;;3.80;69.42;98726.88;5081373;28;20044;-51
2023/02/03 07:51:30;;;;;;;21.70;9.90;;;;;;;3.79;69.24;98708.91;5086397;28;20040;-48
2023/02/03 07:53:56;;;;;;;20.85;8.00;;;;;;;3.86;69.12;98733.63;5073150;28;20466;-48
2023/02/03 07:56:22;;;;;;;18.80;8.02;;;;;;;3.65;68.98;98734.09;5074853;28;20040;-48
2023/02/03 07:58:51;;;;;;;22.65;8.55;;;;;;;3.54;69.46;98733.47;5074903;28;20072;-47
2023/02/03 08:01:17;;;;;;;20.65;9.48;;;;;;;3.33;69.71;98699.66;5083142;28;20040;-51
2023/02/03 08:03:43;;;;;;;20.77;9.38;;;;;;;3.23;69.95;98698.16;5079205;28;20389;-49
2023/02/03 08:06:09;;;;;;;19.33;7.75;;;;;;;3.34;70.19;98732.19;5077156;28;20115;-47
2023/02/03 08:08:35;;;;;;;21.75;9.68;;;;;;;3.24;70.25;98720.41;5088117;28;20093;-51
2023/02/03 08:11:01;;;;;;;25.60;10.07;;;;;;;3.29;70.32;98721.16;5076982;28;20513;-46
2023/02/03 08:13:27;;;;;;;16.95;8.02;;;;;;;3.15;70.21;98687.19;5084775;28;20048;-44
2023/02/03 08:15:53;;;;;;;23.13;10.35;;;;;;;3.72;70.28;98715.91;5071068;28;20040;-47
2023/02/03 08:18:19;;;;;;;21.42;9.48;;;;;;;4.10;68.74;98709.91;5074379;28;20043;-45
2023/02/03 08:20:48;;;;;;;18.05;7.95;;;;;;;4.28;67.98;98676.91;5074604;28;20036;-45
2023/02/03 08:23:14;;;;;;;16.25;7.35;;;;;;;4.61;67.41;98705.16;5075184;28;20040;-44
2023/02/03 08:25:40;;;;;;;15.98;7.18;;;;;;;4.54;66.49;98703.66;5067724;28;20478;-47
2023/02/03 08:28:05;;;;;;;18.23;7.75;;;;;;;4.53;66.87;98704.53;5079379;28;20044;-47
2023/02/03 08:30:31;;;;;;;18.92;7.65;;;;;;;4.60;66.36;98707.81;5084007;28;20045;-45
2023/02/03 08:32:57;;;;;;;21.10;8.15;;;;;;;4.46;66.04;98712.44;5090086;28;20093;-45
2023/02/03 08:35:24;;;;;;;20.90;7.90;;;;;;;4.03;66.18;98658.66;5080274;28;20464;-46
2023/02/03 08:37:50;;;;;;;17.60;7.60;;;;;;;4.23;66.65;98710.47;5088993;28;20052;-47
2023/02/03 08:40:16;;;;;;;18.25;8.40;;;;;;;4.22;66.55;98704.47;5077795;28;20427;-53
2023/02/03 08:42:42;;;;;;;15.82;8.48;;;;;;;4.31;66.51;98707.69;5085797;28;20048;-51
2023/02/03 08:45:08;;;;;;;19.50;7.88;;;;;;;4.25;66.29;98704.38;5070104;28;20462;-55
2023/02/03 08:47:35;;;;;;;19.52;8.75;;;;;;;4.14;67.06;98711.50;5079295;28;20123;-55
2023/02/03 08:50:03;;;;;;;19.58;9.18;;;;;;;4.05;67.60;98700.59;5087450;28;20048;-49
2023/02/03 08:52:29;;;;;;;21.13;9.15;;;;;;;3.75;67.73;98673.88;5070370;28;20404;-49
2023/02/03 08:54:55;;;;;;;25.08;10.77;;;;;;;3.72;68.67;98704.78;5089664;28;20046;-52
2023/02/03 08:57:20;;;;;;;23.85;9.57;;;;;;;3.61;69.32;98711.91;5088166;28;20556;-50
2023/02/03 08:59:47;;;;;;;26.13;10.30;;;;;;;3.54;69.75;98711.19;5089240;28;20415;-51
2023/02/03 09:02:16;;;;;;;22.23;10.02;;;;;;;3.53;70.35;98708.66;5088439;28;20096;-50
2023/02/03 09:04:42;;;;;;;22.52;10.48;;;;;;;3.55;70.52;98705.19;5055100;28;20468;-53
2023/02/03 09:07:08;;;;;;;21.95;9.93;;;;;;;3.47;70.86;98707.06;5081678;28;20051;-51
2023/02/03 09:09:34;;;;;;;21.63;8.75;;;;;;;3.46;71.16;98705.38;5052739;28;20048;-51
2023/02/03 09:12:01;;;;;;;25.02;9.50;;;;;;;3.42;71.79;98703.75;5073831;28;20488;-48
2023/02/03 09:14:28;;;;;;;23.77;10.85;;;;;;;3.47;71.89;98703.63;5090365;28;20044;-51
2023/02/03 09:16:54;;;;;;;29.73;10.50;;;;;;;3.58;71.79;98707.69;5070903;28;20176;-54
2023/02/03 09:19:20;;;;;;;25.77;10.15;;;;;;;3.58;71.88;98701.69;5080262;28;20607;-51
2023/02/03 09:21:48;;;;;;;24.17;10.02;;;;;;;3.55;71.73;98700.03;5082503;28;20040;-49
2023/02/03 09:24:14;;;;;;;25.15;10.40;;;;;;;3.54;72.37;98700.06;5089454;28;20039;-52
2023/02/03 09:26:40;;;;;;;26.05;10.43;;;;;;;3.71;72.20;98703.13;5089117;28;20063;-48
2023/02/03 09:29:06;;;;;;;29.23;10.35;;;;;;;3.70;72.04;98696.28;5073749;28;20546;-51
2023/02/03 09:31:32;;;;;;;24.55;10.77;;;;;;;3.55;71.74;98671.78;5085687;28;20527;-51
2023/02/03 09:33:59;;;;;;;27.63;10.80;;;;;;;3.48;72.29;98677.94;5087124;28;20633;-49
2023/02/03 09:36:25;;;;;;;28.52;11.70;;;;;;;3.54;72.77;98710.34;5060010;28;20414;-49
2023/02/03 09:38:51;;;;;;;27.17;10.98;;;;;;;3.42;73.38;98696.03;5079663;28;20480;-50
2023/02/03 09:41:44;;;;;;;27.35;11.30;;;;;;;3.36;73.87;98703.88;5070785;28;20070;-51
2023/02/03 09:45:04;;;;;;;25.85;10.23;;;;;;;3.27;74.30;98701.50;5075117;28;20059;-56
2023/02/03 09:47:39;;;;;;;29.35;12.13;;;;;;;3.28;74.56;98691.22;5053335;28;20285;-52
2023/02/03 09:50:10;;;;;;;24.48;10.30;;;;;;;3.31;74.56;98696.25;5079172;28;20044;-51
2023/02/03 09:52:40;;;;;;;23.27;11.57;;;;;;;3.40;74.71;98700.38;5098788;28;20046;-51
2023/02/03 09:55:25;;;;;;;;;;;;;;;3.48;74.40;98700.19;5091644;28;20028;-55
2023/02/03 09:58:01;;;;;;;29.48;11.57;;;;;;;3.59;74.24;98696.53;5072412;28;20007;-52
2023/02/03 10:00:30;;;;;;;26.73;10.68;;;;;;;3.75;74.11;98697.03;5068293;28;20040;-48
2023/02/03 10:03:06;;;;;;;24.95;9.85;;;;;;;3.84;73.59;98699.38;5098048;28;20101;-51
2023/02/03 10:06:07;;;;;;;23.77;9.57;;;;;;;3.82;73.56;98691.69;5089996;28;20423;-49
2023/02/03 10:09:01;;;;;;;23.35;10.30;;;;;;;3.77;73.73;98703.81;5040996;28;20048;-52
2023/02/03 10:11:48;;;;;;;22.25;9.70;;;;;;;3.67;73.57;98702.31;5086957;28;20040;-50
2023/02/03 10:14:49;;;;;;;22.92;10.57;;;;;;;3.67;74.11;98698.91;5080974;28;20052;-49
2023/02/03 10:17:29;;;;;;;25.88;11.00;;;;;;;3.64;74.23;98699.84;5012902;28;20104;-49
2023/02/03 10:20:05;;;;;;;;;;;;;;;3.68;74.62;98701.44;5102869;27;20572;-51
2023/02/03 10:22:34;;;;;;;15.23;7.50;;;;;;;3.65;74.30;98695.53;5081043;28;19943;-52
2023/02/03 10:25:23;;;;;;;16.10;8.18;;;;;;;3.55;74.15;98701.78;5088858;28;20039;-54
2023/02/03 10:27:50;;;;;;;;;;;;;;;3.47;74.56;98695.94;5084240;28;20050;-55
2023/02/03 10:30:26;;;;;;;18.15;8.27;;;;;;;3.43;74.27;98702.88;5088217;28;19931;-52
2023/02/03 10:33:24;;;;;;;20.83;8.30;;;;;;;3.30;74.83;98698.84;5077083;28;20063;-51
2023/02/03 10:35:51;;;;;;;20.70;9.18;;;;;;;3.29;74.89;98685.19;5072547;28;20048;-52
2023/02/03 10:38:40;;;;;;;14.10;7.07;;;;;;;3.45;74.37;98684.88;5074055;28;20093;-53
2023/02/03 10:41:06;;;;;;;19.85;8.25;;;;;;;3.47;74.01;98685.66;5090340;28;20060;-53
2023/02/03 10:43:47;;;;;;;20.88;8.27;;;;;;;3.20;74.11;98630.59;5075518;28;20044;-55
2023/02/03 10:46:14;;;;;;;21.58;7.80;;;;;;;3.51;73.49;98687.31;5084586;28;20119;-53
2023/02/03 10:48:40;;;;;;;19.88;8.63;;;;;;;3.63;73.57;98682.72;5081680;28;20139;-50
2023/02/03 10:51:46;;;;;;;20.60;7.70;;;;;;;3.62;73.31;98700.72;5083733;28;20135;-54
2023/02/03 10:54:26;;;;;;;17.83;7.25;;;;;;;3.50;73.17;98690.75;5083758;28;20048;-47
2023/02/03 10:56:52;;;;;;;15.98;7.20;;;;;;;3.39;73.20;98689.25;5088587;28;21078;-52
2023/02/03 10:59:28;;;;;;;18.70;8.18;;;;;;;3.39;73.54;98680.69;5079346;28;20572;-55
2023/02/03 11:01:54;;;;;;;16.42;7.60;;;;;;;3.44;73.46;98684.00;5067990;28;20040;-55
2023/02/03 11:04:29;;;;;;;19.13;8.13;;;;;;;3.51;73.24;98669.31;5085368;28;20050;-53
2023/02/03 11:07:02;;;;;;;16.13;7.82;;;;;;;3.61;72.67;98678.50;5074306;28;20039;-54
2023/02/03 11:09:39;;;;;;;17.83;8.52;;;;;;;3.74;72.65;98662.75;5082207;28;20059;-53
2023/02/03 11:12:17;;;;;;;17.00;8.20;;;;;;;3.91;71.83;98666.66;5069029;28;20126;-50
2023/02/03 11:14:49;;;;;;;22.52;8.32;;;;;;;3.80;72.15;98665.19;5083586;28;20192;-55
2023/02/03 11:17:18;;;;;;;23.40;8.70;;;;;;;3.76;72.04;98665.31;5079045;28;20522;-53
2023/02/03 11:19:46;;;;;;;19.00;7.82;;;;;;;3.69;71.93;98650.91;5083517;28;20047;-51
2023/02/03 11:22:35;;;;;;;17.83;8.10;;;;;;;3.73;71.93;98671.34;5077626;28;20075;-52
2023/02/03 11:25:03;;;;;;;22.35;8.18;;;;;;;3.76;71.82;98663.59;5071788;28;20083;-52
2023/02/03 11:27:31;;;;;;;18.20;9.30;;;;;;;3.78;72.05;98664.38;5087099;28;20039;-54
2023/02/03 11:30:23;;;;;;;18.50;7.88;;;;;;;3.84;72.01;98669.38;5063290;28;20040;-54
2023/02/03 11:32:49;;;;;;;17.70;7.55;;;;;;;3.56;71.75;98634.91;5080732;28;20596;-57
2023/02/03 11:35:28;;;;;;;20.25;6.57;;;;;;;3.63;71.71;98663.88;5086698;28;20492;-49
2023/02/03 11:37:59;;;;;;;14.02;6.25;;;;;;;3.63;71.61;98666.44;5077373;28;20048;-51
2023/02/03 11:40:25;;;;;;;19.35;8.48;;;;;;;3.67;71.49;98658.63;5079183;28;20404;-51
2023/02/03 11:42:51;;;;;;;16.67;7.70;;;;;;;3.79;71.20;98662.66;5074227;28;20127;-46